Time;durP1;ratioP1;P1;durP2;ratioP2;P2;SDS_P1;SDS_P2;PMS_P1;PMS_P2;Temp;Humidity;BMP_temperature;BMP_pressure;BME280_temperature;BME280_humidity;BME280_pressure;Samples;Min_cycle;Max_cycle;Signal;HPM_P1;HPM_P2
2020/12/13 00:00:12;;;;;;;4.38;3.05;;;5.50;83.90;;;3.50;86.19;94989.78;4971707;28;20034;-72
2020/12/13 00:02:38;;;;;;;4.57;3.28;;;5.40;83.80;;;3.50;86.18;94989.78;4985741;28;20034;-73
2020/12/13 00:05:04;;;;;;;3.80;2.90;;;5.40;83.90;;;3.49;86.03;94987.34;4951452;28;20044;-74
2020/12/13 00:07:30;;;;;;;4.00;3.00;;;5.40;83.90;;;3.50;86.05;94983.78;4977839;28;20145;-73
2020/12/13 00:09:55;;;;;;;4.47;2.97;;;5.50;83.80;;;3.49;86.04;94993.34;4979844;28;20558;-73
2020/12/13 00:12:21;;;;;;;4.88;3.03;;;5.50;83.70;;;3.50;86.22;95000.19;4968999;28;20054;-73
2020/12/13 00:14:46;;;;;;;4.03;3.00;;;5.40;83.80;;;3.51;85.97;94996.59;4992865;28;20417;-74
2020/12/13 00:17:12;;;;;;;4.70;3.20;;;5.50;83.70;;;3.51;86.32;95001.78;4969389;28;20379;-73
2020/12/13 00:19:37;;;;;;;3.72;2.65;;;5.60;83.90;;;3.53;86.35;95004.22;4987145;28;20041;-74
2020/12/13 00:22:03;;;;;;;3.53;2.60;;;5.60;83.70;;;3.54;86.08;95011.03;4984721;28;20057;-73
2020/12/13 00:24:29;;;;;;;3.80;2.50;;;5.60;83.60;;;3.52;85.87;95003.41;4982137;28;20473;-73
2020/12/13 00:26:54;;;;;;;5.28;2.70;;;5.60;83.50;;;3.51;86.28;95007.00;4975773;28;20034;-72
2020/12/13 00:29:20;;;;;;;3.05;2.47;;;5.60;83.70;;;3.53;86.05;95012.00;4992263;28;20030;-73
2020/12/13 00:31:45;;;;;;;3.72;2.50;;;5.60;83.50;;;3.53;85.95;95009.41;4971181;28;20140;-72
2020/12/13 00:34:11;;;;;;;3.92;2.75;;;5.60;83.70;;;3.53;86.06;95006.81;4995095;28;20107;-71
2020/12/13 00:36:37;;;;;;;4.07;2.83;;;5.60;83.50;;;3.54;85.88;95018.84;4987005;28;20022;-73
2020/12/13 00:39:03;;;;;;;4.25;2.60;;;5.60;83.30;;;3.53;86.12;95015.41;4990214;28;20038;-72
2020/12/13 00:41:29;;;;;;;3.60;2.38;;;5.60;82.90;;;3.53;85.71;95020.63;4972480;28;20038;-72
2020/12/13 00:43:54;;;;;;;4.22;2.65;;;5.60;83.20;;;3.54;85.76;95016.22;4969751;28;20386;-72
2020/12/13 00:46:20;;;;;;;3.50;2.47;;;5.50;83.10;;;3.53;85.77;95019.81;4973590;28;20429;-72
2020/12/13 00:48:46;;;;;;;3.58;2.63;;;5.60;83.10;;;3.53;85.75;95015.41;4981710;28;20030;-72
2020/12/13 00:51:11;;;;;;;4.05;2.60;;;5.60;83.10;;;3.55;85.97;95018.66;4963854;28;20045;-71
2020/12/13 00:53:37;;;;;;;3.90;2.55;;;5.60;83.10;;;3.54;85.99;95024.84;4969360;28;20127;-72
2020/12/13 00:56:02;;;;;;;5.20;2.92;;;5.60;83.00;;;3.53;85.77;95030.22;5010220;28;20034;-72
2020/12/13 00:58:28;;;;;;;3.78;2.85;;;5.50;83.10;;;3.53;85.70;95033.63;4985153;28;20046;-72
2020/12/13 01:00:55;;;;;;;4.95;3.00;;;5.50;82.80;;;3.52;85.84;95028.59;4962327;28;20042;-72
2020/12/13 01:03:20;;;;;;;3.45;2.70;;;5.50;83.10;;;3.52;85.54;95034.59;5006499;28;20062;-72
2020/12/13 01:05:46;;;;;;;3.75;2.70;;;5.50;83.30;;;3.50;85.68;95031.38;4976845;28;20141;-72
2020/12/13 01:08:11;;;;;;;4.00;2.80;;;5.50;83.30;;;3.49;85.87;95045.34;4999365;28;20105;-72
2020/12/13 01:10:37;;;;;;;3.92;2.85;;;5.50;83.40;;;3.51;85.70;95047.78;4985027;28;20062;-72
2020/12/13 01:13:03;;;;;;;3.33;2.65;;;5.40;83.50;;;3.50;86.09;95046.97;4998470;28;20056;-72
2020/12/13 01:15:29;;;;;;;3.63;2.45;;;5.50;83.40;;;3.49;85.96;95050.56;4970129;28;20113;-73
2020/12/13 01:17:54;;;;;;;3.17;2.53;;;5.50;83.50;;;3.48;85.72;95059.31;4963832;28;20041;-73
2020/12/13 01:20:20;;;;;;;6.13;2.65;;;5.40;83.60;;;3.49;85.96;95060.13;4972752;28;20038;-73
2020/12/13 01:22:45;;;;;;;3.78;2.72;;;5.50;83.70;;;3.48;85.78;95064.53;4990496;28;20358;-73
2020/12/13 01:25:11;;;;;;;6.47;2.35;;;5.50;83.70;;;3.48;85.68;95061.94;4992272;28;20045;-73
2020/12/13 01:27:37;;;;;;;4.03;2.80;;;5.50;83.80;;;3.47;85.70;95073.31;4973797;28;20030;-72
2020/12/13 01:30:07;;;;;;;3.65;2.65;;;5.40;83.90;;;3.45;86.23;95070.06;4984321;28;20066;-72
2020/12/13 01:32:40;;;;;;;3.30;2.63;;;5.30;84.50;;;3.42;86.90;95074.81;4992302;28;20084;-73
2020/12/13 01:35:07;;;;;;;3.50;2.78;;;5.30;84.90;;;3.42;86.13;95074.81;4993230;28;20300;-73
2020/12/13 01:37:33;;;;;;;5.60;2.83;;;5.40;84.70;;;3.42;85.90;95073.00;5001671;28;20030;-72
2020/12/13 01:39:58;;;;;;;3.70;2.90;;;5.40;84.70;;;3.41;86.26;95066.19;5003358;28;20033;-73
2020/12/13 01:42:24;;;;;;;3.72;2.58;;;5.30;84.60;;;3.41;86.32;95080.97;4954778;28;20046;-73
2020/12/13 01:44:49;;;;;;;3.70;2.80;;;5.40;84.70;;;3.40;86.50;95082.78;4976186;28;20042;-73
2020/12/13 01:47:17;;;;;;;3.83;2.53;;;5.40;84.60;;;3.40;86.57;95077.56;4972443;28;20053;-73
2020/12/13 01:49:45;;;;;;;3.33;2.53;;;5.40;84.90;;;3.42;86.28;95086.00;4956139;28;20113;-74
2020/12/13 01:55:01;;;;;;;3.97;2.90;;;5.60;84.40;;;3.44;86.53;95099.66;4977864;28;20125;-73
2020/12/13 01:57:30;;;;;;;3.63;2.90;;;5.40;84.60;;;3.43;86.88;95095.44;4984027;28;20212;-72
2020/12/13 01:59:55;;;;;;;3.78;2.20;;;5.50;84.50;;;3.41;86.57;95100.00;4991103;28;20244;-73
2020/12/13 02:02:23;;;;;;;3.85;2.80;;;5.40;84.60;;;3.44;86.23;95104.03;4986713;28;20130;-74
2020/12/13 02:04:50;;;;;;;4.57;2.60;;;5.50;84.50;;;3.43;86.10;95105.81;4943916;28;20050;-73
2020/12/13 02:07:16;;;;;;;5.65;3.03;;;5.40;84.50;;;3.40;86.60;95102.75;4987914;28;20045;-73
2020/12/13 02:09:41;;;;;;;4.22;2.65;;;5.30;84.70;;;3.41;86.18;95112.97;4977075;28;20026;-73
2020/12/13 02:12:07;;;;;;;3.83;2.70;;;5.40;84.60;;;3.39;86.73;95101.91;4982391;28;20125;-73
2020/12/13 02:14:32;;;;;;;3.30;2.65;;;5.30;84.80;;;3.41;86.56;95105.19;4985281;28;20120;-73
2020/12/13 02:16:58;;;;;;;3.42;2.63;;;5.40;84.70;;;3.43;86.21;95111.03;4986424;28;20137;-72
2020/12/13 02:19:24;;;;;;;3.53;2.55;;;5.40;84.70;;;3.42;86.43;95106.81;4971669;28;20093;-72
2020/12/13 02:21:50;;;;;;;3.72;2.47;;;5.50;84.60;;;3.44;86.42;95106.63;4979319;28;20580;-75
2020/12/13 02:24:17;;;;;;;3.97;2.92;;;5.50;84.50;;;3.44;86.30;95104.84;4976563;28;20557;-72
2020/12/13 02:26:43;;;;;;;3.53;2.67;;;5.40;84.60;;;3.44;86.70;95109.22;4992915;28;20046;-72
2020/12/13 02:29:09;;;;;;;5.07;2.78;;;5.50;84.70;;;3.44;87.02;95114.44;4998599;28;20045;-73
2020/12/13 02:31:34;;;;;;;3.30;2.65;;;5.50;84.60;;;3.43;86.88;95113.63;4978136;28;20425;-73
2020/12/13 02:34:02;;;;;;;4.43;3.13;;;5.40;85.00;;;3.42;86.51;95112.00;4984823;28;20062;-73
2020/12/13 02:36:29;;;;;;;3.85;2.78;;;5.40;85.20;;;3.41;86.84;95110.38;4979611;28;20133;-73
2020/12/13 02:38:54;;;;;;;5.35;3.10;;;5.40;85.10;;;3.42;86.74;95113.78;4986540;28;20514;-73
2020/12/13 02:41:20;;;;;;;3.38;2.55;;;5.40;85.20;;;3.41;86.58;95118.19;4994020;28;20053;-73
2020/12/13 02:43:45;;;;;;;4.13;3.28;;;5.40;85.30;;;3.42;86.66;95119.81;4998658;28;20038;-72
2020/12/13 02:46:11;;;;;;;3.85;2.97;;;5.50;85.30;;;3.40;86.82;95121.75;4957707;28;20122;-73
2020/12/13 02:48:37;;;;;;;4.50;3.17;;;5.30;85.50;;;3.40;86.92;95126.16;4986208;28;20120;-73
2020/12/13 02:51:02;;;;;;;4.03;2.97;;;5.40;85.50;;;3.41;86.83;95125.16;5016870;28;20067;-73
2020/12/13 02:53:28;;;;;;;4.53;3.40;;;5.40;85.50;;;3.37;86.98;95130.69;4990602;28;20096;-73
2020/12/13 02:55:53;;;;;;;4.28;3.20;;;5.30;85.50;;;3.38;86.79;95128.88;4966603;28;20046;-72
2020/12/13 02:58:19;;;;;;;4.25;3.28;;;5.30;85.50;;;3.38;86.99;95134.09;4977586;28;20051;-72
2020/12/13 03:00:45;;;;;;;4.57;3.50;;;5.40;85.60;;;3.38;87.27;95131.50;4995551;28;20383;-72
2020/12/13 03:03:10;;;;;;;4.53;3.30;;;5.40;85.70;;;3.38;87.22;95141.88;4940181;28;20042;-73
2020/12/13 03:05:36;;;;;;;4.72;3.03;;;5.40;85.60;;;3.37;86.75;95137.66;4971644;28;20034;-74
2020/12/13 03:08:01;;;;;;;4.45;3.38;;;5.40;85.70;;;3.40;87.21;95145.16;4975225;28;20093;-72
2020/12/13 03:10:27;;;;;;;4.20;2.85;;;5.40;85.50;;;3.40;87.03;95147.75;4982864;28;20489;-73
2020/12/13 03:12:52;;;;;;;4.70;3.47;;;5.40;85.50;;;3.42;87.15;95145.00;4970009;28;20037;-74
2020/12/13 03:15:18;;;;;;;4.03;3.38;;;5.50;85.40;;;3.42;87.16;95148.41;4986500;28;20034;-73
2020/12/13 03:17:44;;;;;;;4.78;3.10;;;5.50;85.40;;;3.45;87.06;95150.66;4956535;28;20036;-73
2020/12/13 03:20:09;;;;;;;6.72;3.20;;;5.50;85.30;;;3.45;87.14;95155.03;4997084;28;20027;-74
2020/12/13 03:22:35;;;;;;;4.28;3.13;;;5.50;85.10;;;3.45;87.24;95153.25;4999464;28;20568;-73
2020/12/13 03:25:00;;;;;;;3.90;2.72;;;5.40;85.30;;;3.46;87.27;95152.28;4991218;28;20042;-73
2020/12/13 03:27:26;;;;;;;4.75;3.10;;;5.50;85.30;;;3.46;86.82;95154.88;5004139;28;20097;-73
2020/12/13 03:29:52;;;;;;;4.20;2.92;;;5.50;85.30;;;3.48;86.91;95158.13;4998152;28;20084;-73
2020/12/13 03:32:19;;;;;;;4.03;3.17;;;5.60;85.20;;;3.49;86.93;95164.94;4980756;28;20034;-73
2020/12/13 03:34:44;;;;;;;3.92;2.92;;;5.60;85.20;;;3.50;86.54;95166.56;4963595;28;20156;-73
2020/12/13 03:37:10;;;;;;;5.30;3.10;;;5.60;85.00;;;3.52;87.07;95166.38;4953174;28;20030;-72
2020/12/13 03:39:35;;;;;;;4.28;3.30;;;5.60;85.00;;;3.54;87.06;95169.63;4988845;28;20037;-73
2020/12/13 03:42:01;;;;;;;3.60;2.97;;;5.60;84.80;;;3.55;87.18;95168.63;4963139;28;20112;-74
2020/12/13 03:44:26;;;;;;;3.53;2.75;;;5.60;84.70;;;3.55;87.43;95169.44;4979108;28;20561;-73
2020/12/13 03:46:52;;;;;;;4.88;3.05;;;5.70;84.90;;;3.56;87.19;95173.66;4968194;28;20031;-73
2020/12/13 03:49:18;;;;;;;4.93;3.10;;;5.70;84.50;;;3.58;86.94;95182.13;4999396;28;20046;-73
2020/12/13 03:51:43;;;;;;;3.50;2.78;;;5.70;84.70;;;3.60;87.32;95181.94;4969466;28;20037;-74
2020/12/13 03:54:09;;;;;;;5.78;3.25;;;5.70;84.80;;;3.59;87.00;95175.94;4939608;28;20038;-74
2020/12/13 03:56:34;;;;;;;4.45;2.88;;;5.60;85.00;;;3.60;86.97;95181.94;4969591;28;20038;-73
2020/12/13 03:59:00;;;;;;;6.72;3.00;;;5.70;85.10;;;3.62;87.02;95180.81;4995016;28;20041;-74
2020/12/13 04:01:25;;;;;;;4.70;3.33;;;5.70;85.10;;;3.64;87.27;95189.25;5001475;28;20393;-73
2020/12/13 04:03:51;;;;;;;4.95;3.38;;;5.80;84.90;;;3.65;86.95;95179.66;4969364;28;20030;-73
2020/12/13 04:06:16;;;;;;;4.32;2.88;;;5.70;85.00;;;3.67;87.19;95194.13;4997560;28;20026;-74
2020/12/13 04:08:42;;;;;;;5.18;3.17;;;5.80;84.90;;;3.67;87.24;95188.91;4972985;28;20069;-73
2020/12/13 04:11:07;;;;;;;4.47;3.15;;;5.80;85.00;;;3.68;87.44;95187.94;4993407;28;20467;-73
2020/12/13 04:13:33;;;;;;;6.65;3.55;;;5.80;85.00;;;3.71;87.60;95193.78;4983548;28;20026;-73
2020/12/13 04:15:59;;;;;;;5.75;3.42;;;5.90;85.00;;;3.68;87.46;95194.94;4987390;28;20050;-73
2020/12/13 04:18:24;;;;;;;6.75;3.40;;;5.80;85.30;;;3.71;87.38;95199.78;4991411;28;20437;-73
2020/12/13 04:20:50;;;;;;;5.68;3.80;;;5.90;85.20;;;3.71;87.39;95196.38;4953326;28;20540;-73
2020/12/13 04:23:16;;;;;;;6.07;3.65;;;5.80;85.50;;;3.71;87.59;95209.38;4985860;28;20043;-73
2020/12/13 04:25:41;;;;;;;4.85;3.92;;;5.80;85.70;;;3.72;87.77;95205.81;4962992;28;20038;-74
2020/12/13 04:28:07;;;;;;;5.15;3.25;;;5.80;85.50;;;3.72;87.70;95211.00;4991213;28;20145;-74
2020/12/13 04:30:32;;;;;;;7.80;4.10;;;5.80;85.50;;;3.74;87.60;95209.84;5009258;28;20116;-74
2020/12/13 04:32:58;;;;;;;5.50;4.03;;;5.90;85.40;;;3.72;87.20;95216.19;4988602;28;20042;-72
2020/12/13 04:35:23;;;;;;;6.20;4.15;;;5.80;85.80;;;3.72;88.38;95211.00;4965289;28;20039;-74
2020/12/13 04:37:49;;;;;;;7.32;4.20;;;5.80;85.90;;;3.73;88.05;95217.81;4974846;28;20042;-74
2020/12/13 04:40:14;;;;;;;6.10;4.22;;;5.90;85.80;;;3.74;87.79;95225.47;4983522;28;20045;-75
2020/12/13 04:42:40;;;;;;;7.38;4.45;;;5.90;85.70;;;3.75;87.79;95231.47;4955999;28;20041;-74
2020/12/13 04:45:07;;;;;;;5.15;3.90;;;5.90;85.70;;;3.74;88.32;95227.25;4944293;28;20042;-74
2020/12/13 04:47:33;;;;;;;6.90;4.05;;;5.90;85.90;;;3.74;87.73;95230.66;4968524;28;20089;-74
2020/12/13 04:50:04;;;;;;;7.32;4.20;;;5.90;85.90;;;3.75;88.18;95229.69;4991819;28;20033;-74
2020/12/13 04:52:30;;;;;;;6.28;4.50;;;5.90;86.00;;;3.76;88.52;95243.50;4982204;28;20049;-72
2020/12/13 04:54:55;;;;;;;7.32;4.78;;;5.90;85.90;;;3.76;87.78;95235.69;4967323;28;20034;-73
2020/12/13 04:57:21;;;;;;;5.68;4.10;;;5.90;86.00;;;3.76;87.96;95239.09;4995217;28;20034;-73
2020/12/13 04:59:47;;;;;;;6.28;4.63;;;5.90;86.10;;;3.75;88.21;95245.28;4964923;28;20497;-73
2020/12/13 05:02:13;;;;;;;11.65;5.35;;;5.90;86.00;;;3.76;87.97;95248.69;4985403;28;20498;-73
2020/12/13 05:04:40;;;;;;;6.40;4.43;;;5.90;86.00;;;3.77;88.14;95250.31;4992590;28;20041;-73
2020/12/13 05:07:06;;;;;;;6.55;4.43;;;5.90;86.00;;;3.77;87.95;95250.31;4991814;28;20199;-73
2020/12/13 05:09:31;;;;;;;8.77;5.18;;;6.00;85.80;;;3.78;87.73;95251.94;4967819;28;20133;-74
2020/12/13 05:11:57;;;;;;;6.55;4.63;;;5.90;85.80;;;3.76;88.21;95259.09;5003103;28;20129;-74
2020/12/13 05:14:22;;;;;;;6.50;4.88;;;5.90;85.90;;;3.76;88.19;95262.50;4966888;28;20092;-74
2020/12/13 05:16:48;;;;;;;8.52;5.68;;;5.90;86.10;;;3.75;88.40;95263.50;4989155;28;20513;-73
2020/12/13 05:19:14;;;;;;;7.43;5.50;;;5.80;86.10;;;3.76;88.21;95266.91;4982720;28;20646;-73
2020/12/13 05:21:39;;;;;;;7.10;5.28;;;5.80;86.20;;;3.75;88.48;95267.88;4970365;28;20022;-74
2020/12/13 05:24:06;;;;;;;10.52;5.90;;;5.80;86.40;;;3.74;88.46;95272.28;4976800;28;20039;-73
2020/12/13 05:26:31;;;;;;;8.00;6.07;;;5.80;86.60;;;3.74;88.53;95269.66;4994330;28;20042;-73
2020/12/13 05:28:58;;;;;;;8.65;5.97;;;5.80;86.80;;;3.73;88.20;95262.84;4977602;28;20026;-73
2020/12/13 05:31:26;;;;;;;8.68;6.28;;;5.80;86.90;;;3.73;88.25;95275.03;4989781;28;20109;-73
2020/12/13 05:34:03;;;;;;;8.35;6.30;;;5.80;86.90;;;3.74;88.56;95276.66;4990324;28;20531;-73
2020/12/13 05:36:31;;;;;;;10.45;6.70;;;5.80;86.80;;;3.72;88.44;95271.63;4960406;28;20117;-73
2020/12/13 05:38:58;;;;;;;10.32;6.43;;;5.80;87.00;;;3.71;88.68;95283.00;4987871;28;20092;-73
2020/12/13 05:41:33;;;;;;;10.43;6.93;;;5.80;87.00;;;3.71;89.07;95284.81;4986190;28;20131;-75
2020/12/13 05:47:22;;;;;;;11.93;6.97;;;5.80;87.10;;;3.72;88.68;95291.63;4984288;28;20057;-74
2020/12/13 05:50:24;;;;;;;13.10;7.60;;;5.80;87.10;;;3.73;88.69;95296.66;4973189;28;20033;-74
2020/12/13 05:52:49;;;;;;;11.40;7.57;;;5.80;87.00;;;3.72;89.31;95300.25;4997621;28;20040;-73
2020/12/13 05:55:14;;;;;;;12.32;8.43;;;5.80;87.30;;;3.70;88.93;95302.19;4979927;28;20066;-74
2020/12/13 05:57:40;;;;;;;14.90;7.82;;;5.70;87.50;;;3.69;89.11;95303.97;4984835;28;20050;-73
2020/12/13 06:00:07;;;;;;;12.57;8.05;;;5.70;87.70;;;3.71;88.93;95308.22;4991056;28;20035;-73
2020/12/13 06:02:32;;;;;;;13.30;8.45;;;5.70;87.60;;;3.71;88.94;95310.81;4945074;28;20100;-73
2020/12/13 06:05:02;;;;;;;12.95;8.13;;;5.80;87.30;;;3.73;89.29;95311.44;4974414;28;20469;-73
2020/12/13 06:07:29;;;;;;;11.30;7.82;;;5.80;87.40;;;3.72;89.25;95313.25;4988343;28;20070;-74
2020/12/13 06:09:54;;;;;;;13.82;8.43;;;5.80;87.40;;;3.73;89.01;95309.66;4956054;28;20105;-73
2020/12/13 06:12:20;;;;;;;13.90;8.32;;;5.80;87.30;;;3.74;89.00;95318.28;4994015;28;20475;-74
2020/12/13 06:14:45;;;;;;;15.27;8.32;;;5.80;87.30;;;3.75;89.01;95320.72;4995158;28;20104;-73
2020/12/13 06:17:11;;;;;;;16.77;8.32;;;5.90;87.10;;;3.75;88.98;95315.50;4985229;28;20045;-74
2020/12/13 06:19:37;;;;;;;13.10;8.25;;;5.90;87.00;;;3.77;88.93;95323.13;4996374;28;20033;-74
2020/12/13 06:22:03;;;;;;;14.02;8.48;;;5.90;87.10;;;3.77;89.09;95316.16;4987575;28;20488;-74
2020/12/13 06:24:29;;;;;;;14.20;9.02;;;5.80;87.10;;;3.79;89.19;95326.38;4989808;28;20049;-73
2020/12/13 06:26:55;;;;;;;20.15;12.35;;;5.90;87.20;;;3.80;88.65;95325.41;4994004;28;20065;-75
2020/12/13 06:29:23;;;;;;;21.95;12.40;;;5.90;87.10;;;3.81;89.09;95324.44;4987764;28;20512;-75
2020/12/13 06:31:49;;;;;;;17.20;10.50;;;5.90;87.40;;;3.79;88.99;95327.19;4994827;28;20038;-71
2020/12/13 06:34:15;;;;;;;21.88;13.88;;;5.80;87.30;;;3.80;89.01;95336.63;4966970;28;20033;-70
2020/12/13 06:36:41;;;;;;;19.42;11.05;;;5.80;87.80;;;3.81;89.54;95334.81;4967951;28;20517;-68
2020/12/13 06:39:13;;;;;;;18.08;10.05;;;5.80;88.10;;;3.83;89.54;95338.06;5015138;28;20110;-71
2020/12/13 06:41:44;;;;;;;18.33;11.32;;;5.80;88.00;;;3.82;89.65;95346.84;4999580;28;20038;-70
2020/12/13 06:44:10;;;;;;;19.92;12.43;;;5.80;87.80;;;3.82;89.40;95342.47;4970546;28;20038;-72
2020/12/13 06:46:43;;;;;;;20.15;11.55;;;5.90;87.90;;;3.84;89.30;95355.31;4976899;28;20149;-72
2020/12/13 06:49:14;;;;;;;16.90;9.60;;;5.80;88.10;;;3.84;89.70;95360.50;4981967;28;20030;-74
2020/12/13 06:51:41;;;;;;;17.60;10.10;;;5.90;87.90;;;3.83;89.76;95359.69;4998233;28;20030;-74
2020/12/13 06:54:14;;;;;;;17.55;9.10;;;5.90;87.90;;;3.83;90.06;95354.50;4975375;28;20282;-73
2020/12/13 06:56:40;;;;;;;18.48;10.68;;;5.90;87.80;;;3.85;89.62;95356.97;4972635;28;20535;-73
2020/12/13 06:59:07;;;;;;;18.30;9.80;;;5.90;87.70;;;3.85;89.40;95356.97;4988284;28;20093;-72
2020/12/13 07:01:40;;;;;;;18.13;10.15;;;5.90;87.90;;;3.86;89.89;95363.78;4985119;28;20038;-73
2020/12/13 07:04:21;;;;;;;17.52;9.25;;;5.90;87.70;;;3.86;90.34;95362.00;5009029;28;20039;-74
2020/12/13 07:06:50;;;;;;;15.75;9.63;;;5.90;87.70;;;3.87;89.40;95370.59;4989256;28;20402;-74
2020/12/13 07:09:16;;;;;;;17.63;10.27;;;5.90;87.80;;;3.90;89.22;95375.47;4973147;28;20121;-73
2020/12/13 07:11:43;;;;;;;18.25;10.63;;;5.90;87.60;;;3.90;89.25;95373.69;4989012;28;20125;-73
2020/12/13 07:14:11;;;;;;;17.95;9.30;;;6.00;87.40;;;3.92;89.37;95383.94;4979474;28;20038;-73
2020/12/13 07:16:39;;;;;;;14.73;9.15;;;6.10;87.20;;;3.94;89.68;95387.16;4984980;28;20062;-71
2020/12/13 07:19:10;;;;;;;16.02;9.43;;;6.10;87.10;;;3.94;89.77;95389.78;4976733;28;20074;-72
2020/12/13 07:21:36;;;;;;;16.33;8.73;;;6.00;87.30;;;3.95;89.18;95389.59;4976002;28;20528;-73
2020/12/13 07:24:02;;;;;;;14.65;8.93;;;6.10;87.10;;;3.96;89.35;95391.22;4999577;28;20045;-67
2020/12/13 07:26:29;;;;;;;16.27;8.88;;;6.00;87.30;;;3.98;89.83;95391.88;4995954;28;20031;-69
2020/12/13 07:28:55;;;;;;;15.00;9.18;;;6.10;87.20;;;3.99;89.33;95396.09;4968779;28;20045;-74
2020/12/13 07:31:23;;;;;;;15.32;9.60;;;6.10;87.10;;;4.01;89.16;95408.94;4953690;28;20514;-73
2020/12/13 07:33:48;;;;;;;16.40;9.50;;;6.10;87.20;;;4.01;89.16;95416.75;4971725;28;20045;-69
2020/12/13 07:36:14;;;;;;;18.48;10.05;;;6.10;87.20;;;4.02;89.58;95410.56;4972591;28;20414;-67
2020/12/13 07:38:40;;;;;;;15.95;9.68;;;6.10;87.00;;;4.04;89.19;95419.00;4998436;28;20511;-67
2020/12/13 07:41:16;;;;;;;16.85;9.93;;;6.10;87.20;;;4.05;90.24;95425.03;4996892;28;20047;-67
2020/12/13 07:43:56;;;;;;;16.35;10.15;;;6.10;87.30;;;4.04;89.65;95424.22;4993507;28;20454;-68
2020/12/13 07:46:23;;;;;;;14.77;9.52;;;6.10;87.30;;;4.05;89.23;95425.84;4983883;28;20462;-68
2020/12/13 07:49:19;;;;;;;18.35;9.27;;;6.10;87.10;;;4.09;90.54;95426.34;4987945;28;20473;-70
2020/12/13 07:51:50;;;;;;;15.80;9.23;;;6.20;87.00;;;4.08;89.54;95430.75;4988453;28;20035;-69
2020/12/13 07:54:24;;;;;;;16.60;9.90;;;6.10;86.90;;;4.11;89.46;95434.81;4962764;28;20061;-72
2020/12/13 07:56:51;;;;;;;25.80;15.73;;;6.20;86.90;;;4.10;89.50;95439.19;4969787;28;20450;-74
2020/12/13 07:59:19;;;;;;;19.45;10.38;;;6.10;87.20;;;4.10;89.26;95436.59;4969079;28;20046;-72
2020/12/13 08:01:49;;;;;;;15.75;9.88;;;6.10;87.40;;;4.11;89.77;95435.63;4953145;28;20053;-70
2020/12/13 08:04:15;;;;;;;15.18;9.60;;;6.10;87.40;;;4.12;89.61;95444.22;4977496;28;20056;-72
2020/12/13 08:06:41;;;;;;;16.35;9.38;;;6.20;87.00;;;4.12;88.99;95441.63;4937431;28;20406;-71
2020/12/13 08:09:08;;;;;;;20.08;10.85;;;6.10;87.20;;;4.13;89.00;95444.06;4954475;28;20031;-71
2020/12/13 08:11:35;;;;;;;15.88;9.82;;;6.10;87.60;;;4.15;89.67;95449.09;4979960;28;20398;-72
2020/12/13 08:14:00;;;;;;;17.77;10.43;;;6.20;87.40;;;4.16;89.39;95454.13;4954621;28;20034;-73
2020/12/13 08:16:26;;;;;;;18.17;11.43;;;6.20;87.10;;;4.17;89.07;95455.75;4946653;28;20505;-74
2020/12/13 08:18:53;;;;;;;22.33;13.20;;;6.20;87.00;;;4.19;89.44;95458.19;4993701;28;20088;-74
2020/12/13 08:21:37;;;;;;;24.27;12.68;;;6.20;87.20;;;4.21;90.29;95462.25;4978937;28;20046;-74
2020/12/13 08:24:03;;;;;;;28.33;16.38;;;6.30;86.80;;;4.20;89.38;95465.84;4960324;28;20046;-73
2020/12/13 08:26:28;;;;;;;22.40;14.25;;;6.20;87.10;;;4.21;89.34;95462.25;4994112;28;20049;-73
2020/12/13 08:28:54;;;;;;;23.02;13.30;;;6.20;87.20;;;4.23;89.47;95465.50;4930584;28;20030;-73
2020/12/13 08:31:22;;;;;;;19.83;12.07;;;6.30;87.00;;;4.25;89.20;95467.94;4947509;28;20054;-74
2020/12/13 08:33:48;;;;;;;32.05;17.98;;;6.30;87.20;;;4.28;89.30;95478.03;4980670;28;20119;-73
2020/12/13 08:36:22;;;;;;;20.88;13.73;;;6.40;87.40;;;4.35;90.16;95480.81;4970053;28;20034;-73
2020/12/13 08:39:09;;;;;;;31.42;18.15;;;6.50;87.40;;;4.38;90.30;95480.47;4969808;28;20548;-73
2020/12/13 08:41:35;;;;;;;23.30;13.50;;;6.50;87.30;;;4.40;89.65;95481.09;4994911;28;20223;-73
2020/12/13 08:44:00;;;;;;;21.10;12.50;;;6.40;87.20;;;4.41;89.38;95493.16;4954688;28;20060;-74
2020/12/13 08:46:37;;;;;;;23.10;13.45;;;6.50;87.10;;;4.43;90.28;95491.19;4978822;28;20035;-75
2020/12/13 08:49:06;;;;;;;28.25;16.25;;;6.40;87.30;;;4.45;89.38;95494.44;4954622;28;20027;-74
2020/12/13 08:51:32;;;;;;;23.08;10.57;;;6.60;87.30;;;4.51;89.08;95498.97;4955675;28;20460;-74
2020/12/13 08:54:00;;;;;;;19.73;12.52;;;6.60;86.80;;;4.54;89.71;95501.28;4994327;28;20034;-75
2020/12/13 08:56:36;;;;;;;28.98;18.63;;;6.60;87.10;;;4.59;90.63;95498.97;4968880;28;20744;-74
2020/12/13 08:59:02;;;;;;;24.70;16.00;;;6.70;86.90;;;4.65;89.87;95490.50;4977234;28;20125;-74
2020/12/13 09:01:37;;;;;;;28.90;17.27;;;6.90;86.70;;;4.73;89.65;95503.47;4986338;28;20039;-75
2020/12/13 09:04:23;;;;;;;17.05;10.73;;;7.00;86.30;;;4.82;89.72;95505.09;4960637;28;20142;-72
2020/12/13 09:06:57;;;;;;;14.10;9.27;;;7.10;86.00;;;4.87;89.53;95509.78;4994739;28;20109;-75
2020/12/13 09:09:30;;;;;;;13.63;9.23;;;7.00;85.60;;;4.92;89.75;95523.94;4988074;28;20030;-74
2020/12/13 09:11:56;;;;;;;13.15;9.02;;;7.00;85.60;;;4.93;89.51;95524.75;4985289;28;20033;-75
2020/12/13 09:14:32;;;;;;;15.65;9.55;;;7.00;85.60;;;4.92;89.32;95523.13;4984907;28;20035;-74
2020/12/13 09:16:59;;;;;;;12.75;8.65;;;6.90;85.80;;;4.90;88.66;95519.88;4985801;28;20034;-73
2020/12/13 09:19:24;;;;;;;12.90;9.10;;;6.90;86.00;;;4.90;89.17;95530.31;4969411;28;20038;-74
2020/12/13 09:21:52;;;;;;;17.63;9.15;;;6.80;86.00;;;4.88;89.42;95540.91;4961360;28;20065;-73
2020/12/13 09:24:20;;;;;;;13.52;9.55;;;6.90;86.20;;;4.90;88.89;95541.53;4967982;28;20125;-67
2020/12/13 09:26:59;;;;;;;17.05;9.48;;;7.00;86.40;;;4.90;89.38;95538.94;5000848;28;20039;-72
2020/12/13 09:29:25;;;;;;;15.27;8.88;;;6.90;86.20;;;4.87;89.32;95554.91;4981016;28;20061;-67
2020/12/13 09:31:50;;;;;;;11.85;8.43;;;6.80;86.40;;;4.87;88.99;95556.69;4967293;28;20077;-71
2020/12/13 09:34:16;;;;;;;23.92;13.60;;;6.80;86.30;;;4.84;88.77;95552.63;4956567;28;20042;-77
2020/12/13 09:36:43;;;;;;;16.52;11.68;;;6.80;86.20;;;4.83;89.19;95556.22;4963121;28;20043;-78
2020/12/13 09:39:09;;;;;;;18.10;13.35;;;6.80;86.40;;;4.84;88.83;95562.25;4988031;28;20039;-78
2020/12/13 09:41:35;;;;;;;13.40;8.38;;;6.90;86.10;;;4.83;88.76;95564.03;4984271;28;20034;-77
2020/12/13 09:44:01;;;;;;;12.35;8.50;;;6.90;86.00;;;4.85;88.64;95563.88;4988590;28;20030;-77
2020/12/13 09:46:26;;;;;;;14.88;10.10;;;7.00;86.10;;;4.86;89.23;95561.09;4955524;28;20042;-77
2020/12/13 09:48:52;;;;;;;12.48;8.77;;;7.00;86.00;;;4.87;88.45;95562.72;4984365;28;20026;-76
2020/12/13 09:51:18;;;;;;;12.90;9.02;;;7.00;85.80;;;4.86;88.92;95561.09;4979238;28;20042;-78
2020/12/13 09:53:44;;;;;;;15.18;10.32;;;6.90;86.00;;;4.87;89.29;95560.13;4983603;28;20062;-79
2020/12/13 09:56:10;;;;;;;10.23;7.50;;;7.00;85.90;;;4.89;88.72;95560.75;5004139;28;20034;-78
2020/12/13 09:58:36;;;;;;;11.73;7.90;;;7.00;85.70;;;4.92;88.57;95567.44;4975930;28;20104;-77
2020/12/13 10:01:02;;;;;;;16.45;10.90;;;7.10;85.60;;;4.93;88.96;95566.44;4986209;28;20100;-79
2020/12/13 10:03:27;;;;;;;18.30;13.35;;;7.10;85.80;;;4.98;88.82;95558.13;4965904;28;20042;-79
2020/12/13 10:06:08;;;;;;;13.23;8.60;;;7.10;85.60;;;5.00;89.00;95567.44;4952377;28;20065;-77
2020/12/13 10:11:18;;;;;;;10.90;6.55;;;7.10;85.10;;;4.98;88.38;95568.53;4990780;28;19988;-77
2020/12/13 10:13:43;;;;;;;9.60;6.85;;;7.00;85.40;;;4.99;88.90;95571.03;4986481;28;20038;-77
2020/12/13 10:16:10;;;;;;;12.45;8.15;;;7.00;85.30;;;5.00;88.55;95572.66;4973608;28;20039;-69
2020/12/13 10:18:36;;;;;;;8.20;6.07;;;7.00;85.40;;;5.00;88.48;95562.22;4972355;28;20045;-71
2020/12/13 10:21:02;;;;;;;9.35;6.18;;;7.10;85.60;;;5.01;87.88;95569.06;4972069;28;20038;-70
2020/12/13 10:23:27;;;;;;;7.68;5.75;;;7.00;85.60;;;5.04;88.23;95558.28;4957541;28;20026;-69
2020/12/13 10:25:53;;;;;;;7.45;5.47;;;7.10;85.60;;;5.06;88.38;95568.53;4976498;28;20556;-69
2020/12/13 10:28:19;;;;;;;10.82;6.85;;;7.10;85.30;;;5.10;88.09;95564.63;4979571;28;20042;-70
2020/12/13 10:30:49;;;;;;;8.15;6.00;;;7.20;85.40;;;5.14;88.54;95563.28;4966430;28;20369;-69
2020/12/13 10:33:14;;;;;;;6.60;5.43;;;7.20;84.90;;;5.16;87.90;95561.34;4973418;28;20069;-69
2020/12/13 10:35:40;;;;;;;11.02;7.82;;;7.30;84.90;;;5.18;88.32;95564.56;4981792;28;20062;-71